sensor_id;sensor_type;location;lat;lon;timestamp;pressure;altitude;pressure_sealevel;temperature;humidity
70302;BME280;57706;56.326;43.882;2023-04-15T00:01:19;102102.81;;;-0.95;30.39
70302;BME280;57706;56.326;43.882;2023-04-15T00:03:45;102101.97;;;-0.95;30.52
70302;BME280;57706;56.326;43.882;2023-04-15T00:06:12;102103.06;;;-1.04;30.80
70302;BME280;57706;56.326;43.882;2023-04-15T00:08:38;102104.78;;;-1.03;30.71
70302;BME280;57706;56.326;43.882;2023-04-15T00:11:04;102104.78;;;-1.03;31.16
70302;BME280;57706;56.326;43.882;2023-04-15T00:13:31;102113.31;;;-1.01;30.70
70302;BME280;57706;56.326;43.882;2023-04-15T00:16:00;102105.59;;;-1.03;30.75
70302;BME280;57706;56.326;43.882;2023-04-15T00:18:26;102107.38;;;-1.05;31.12
70302;BME280;57706;56.326;43.882;2023-04-15T00:20:51;102111.69;;;-1.05;30.72
70302;BME280;57706;56.326;43.882;2023-04-15T00:23:17;102111.78;;;-1.08;31.29
70302;BME280;57706;56.326;43.882;2023-04-15T00:25:43;102113.47;;;-1.07;30.81
70302;BME280;57706;56.326;43.882;2023-04-15T00:28:09;102115.16;;;-1.06;31.04
70302;BME280;57706;56.326;43.882;2023-04-15T00:30:36;102110.09;;;-1.09;31.20
70302;BME280;57706;56.326;43.882;2023-04-15T00:33:01;102111.16;;;-1.17;31.28
70302;BME280;57706;56.326;43.882;2023-04-15T00:35:28;102115.53;;;-1.19;31.16
70302;BME280;57706;56.326;43.882;2023-04-15T00:37:57;102126.69;;;-1.18;31.08
70302;BME280;57706;56.326;43.882;2023-04-15T00:40:24;102117.28;;;-1.21;31.31
70302;BME280;57706;56.326;43.882;2023-04-15T00:42:50;102120.84;;;-1.25;31.42
70302;BME280;57706;56.326;43.882;2023-04-15T00:45:17;102127.59;;;-1.21;31.16
70302;BME280;57706;56.326;43.882;2023-04-15T00:47:43;102129.41;;;-1.23;31.31
70302;BME280;57706;56.326;43.882;2023-04-15T00:50:11;102125.94;;;-1.22;31.13
70302;BME280;57706;56.326;43.882;2023-04-15T00:52:38;102114.72;;;-1.21;31.55
70302;BME280;57706;56.326;43.882;2023-04-15T00:55:04;102132.97;;;-1.27;31.43
70302;BME280;57706;56.326;43.882;2023-04-15T00:57:31;102124.66;;;-1.39;31.68
70302;BME280;57706;56.326;43.882;2023-04-15T00:59:59;102129.81;;;-1.39;33.83
70302;BME280;57706;56.326;43.882;2023-04-15T01:02:25;102138.44;;;-1.40;32.02
70302;BME280;57706;56.326;43.882;2023-04-15T01:04:51;102144.47;;;-1.39;31.63
70302;BME280;57706;56.326;43.882;2023-04-15T01:07:18;102137.63;;;-1.40;32.01
70302;BME280;57706;56.326;43.882;2023-04-15T01:09:44;102137.66;;;-1.42;31.97
70302;BME280;57706;56.326;43.882;2023-04-15T01:12:13;102143.59;;;-1.40;31.85
70302;BME280;57706;56.326;43.882;2023-04-15T01:14:42;102145.41;;;-1.43;32.03
70302;BME280;57706;56.326;43.882;2023-04-15T01:17:08;102147.97;;;-1.42;31.88
70302;BME280;57706;56.326;43.882;2023-04-15T01:19:37;102147.16;;;-1.44;31.92
70302;BME280;57706;56.326;43.882;2023-04-15T01:22:03;102150.63;;;-1.45;32.24
70302;BME280;57706;56.326;43.882;2023-04-15T01:24:31;102145.47;;;-1.45;31.97
70302;BME280;57706;56.326;43.882;2023-04-15T01:27:00;102158.53;;;-1.51;32.37
70302;BME280;57706;56.326;43.882;2023-04-15T01:29:26;102158.38;;;-1.45;31.84
70302;BME280;57706;56.326;43.882;2023-04-15T01:31:54;102154.94;;;-1.45;32.12
70302;BME280;57706;56.326;43.882;2023-04-15T01:34:39;102155.94;;;-1.51;32.27
70302;BME280;57706;56.326;43.882;2023-04-15T01:37:24;102162.03;;;-1.54;32.73
70302;BME280;57706;56.326;43.882;2023-04-15T01:39:50;102168.06;;;-1.53;32.55
70302;BME280;57706;56.326;43.882;2023-04-15T01:42:16;102174.97;;;-1.55;32.16
70302;BME280;57706;56.326;43.882;2023-04-15T01:44:43;102172.31;;;-1.52;32.76
70302;BME280;57706;56.326;43.882;2023-04-15T01:47:12;102176.59;;;-1.51;32.30
70302;BME280;57706;56.326;43.882;2023-04-15T01:49:39;102173.59;;;-1.69;32.36
70302;BME280;57706;56.326;43.882;2023-04-15T01:52:06;102180.41;;;-1.66;32.19
70302;BME280;57706;56.326;43.882;2023-04-15T01:54:33;102175.13;;;-1.61;32.39
70302;BME280;57706;56.326;43.882;2023-04-15T01:57:00;102169.97;;;-1.61;32.54
70302;BME280;57706;56.326;43.882;2023-04-15T01:59:28;102177.75;;;-1.63;32.79
70302;BME280;57706;56.326;43.882;2023-04-15T02:01:55;102182.13;;;-1.67;32.65
70302;BME280;57706;56.326;43.882;2023-04-15T02:04:23;102184.56;;;-1.60;32.55
70302;BME280;57706;56.326;43.882;2023-04-15T02:06:50;102188.88;;;-1.62;32.69
70302;BME280;57706;56.326;43.882;2023-04-15T02:09:17;102187.91;;;-1.57;32.99
70302;BME280;57706;56.326;43.882;2023-04-15T02:11:45;102192.44;;;-1.67;33.33
70302;BME280;57706;56.326;43.882;2023-04-15T02:14:12;102194.69;;;-1.54;33.00
70302;BME280;57706;56.326;43.882;2023-04-15T02:16:39;102200.34;;;-1.40;33.05
70302;BME280;57706;56.326;43.882;2023-04-15T02:19:07;102195.81;;;-1.30;32.86
70302;BME280;57706;56.326;43.882;2023-04-15T02:21:37;102190.38;;;-1.19;32.24
70302;BME280;57706;56.326;43.882;2023-04-15T02:24:05;102200.72;;;-0.89;31.83
70302;BME280;57706;56.326;43.882;2023-04-15T02:26:33;102199.13;;;-0.93;31.69
70302;BME280;57706;56.326;43.882;2023-04-15T02:29:00;102202.59;;;-0.94;31.86
70302;BME280;57706;56.326;43.882;2023-04-15T02:31:27;102212.94;;;-0.94;32.23
70302;BME280;57706;56.326;43.882;2023-04-15T02:33:54;102207.06;;;-1.01;32.06
70302;BME280;57706;56.326;43.882;2023-04-15T02:36:21;102213.84;;;-0.97;32.68
70302;BME280;57706;56.326;43.882;2023-04-15T02:38:49;102221.38;;;-0.89;31.88
70302;BME280;57706;56.326;43.882;2023-04-15T02:41:17;102219.41;;;-0.80;32.08
70302;BME280;57706;56.326;43.882;2023-04-15T02:43:45;102222.63;;;-0.72;32.02
70302;BME280;57706;56.326;43.882;2023-04-15T02:46:14;102224.16;;;-0.65;31.89
70302;BME280;57706;56.326;43.882;2023-04-15T02:48:41;102232.69;;;-0.63;31.42
70302;BME280;57706;56.326;43.882;2023-04-15T02:51:12;102235.91;;;-0.54;31.63
70302;BME280;57706;56.326;43.882;2023-04-15T02:53:39;102244.38;;;-0.49;31.27
70302;BME280;57706;56.326;43.882;2023-04-15T02:56:07;102242.69;;;-0.50;31.12
70302;BME280;57706;56.326;43.882;2023-04-15T02:58:34;102238.09;;;-0.40;31.87
70302;BME280;57706;56.326;43.882;2023-04-15T03:01:02;102248.97;;;-0.29;30.84
70302;BME280;57706;56.326;43.882;2023-04-15T03:03:29;102248.03;;;-0.26;31.34
70302;BME280;57706;56.326;43.882;2023-04-15T03:05:56;102247.22;;;-0.29;31.01
70302;BME280;57706;56.326;43.882;2023-04-15T03:08:24;102245.34;;;-0.23;30.77
70302;BME280;57706;56.326;43.882;2023-04-15T03:10:51;102253.63;;;-0.12;30.19
70302;BME280;57706;56.326;43.882;2023-04-15T03:13:19;102258.38;;;0.02;30.24
70302;BME280;57706;56.326;43.882;2023-04-15T03:15:48;102256.72;;;-0.01;30.22
70302;BME280;57706;56.326;43.882;2023-04-15T03:18:15;102263.59;;;0.01;30.16
70302;BME280;57706;56.326;43.882;2023-04-15T03:20:42;102256.53;;;0.06;30.08
70302;BME280;57706;56.326;43.882;2023-04-15T03:23:09;102262.16;;;0.19;29.80
70302;BME280;57706;56.326;43.882;2023-04-15T03:25:36;102269.47;;;0.33;30.70
70302;BME280;57706;56.326;43.882;2023-04-15T03:28:05;102270.88;;;0.43;30.13
70302;BME280;57706;56.326;43.882;2023-04-15T03:30:33;102277.22;;;0.60;29.69
70302;BME280;57706;56.326;43.882;2023-04-15T03:33:00;102281.31;;;0.67;29.43
70302;BME280;57706;56.326;43.882;2023-04-15T03:35:27;102275.34;;;0.65;28.75
70302;BME280;57706;56.326;43.882;2023-04-15T03:37:54;102282.81;;;0.74;28.51
70302;BME280;57706;56.326;43.882;2023-04-15T03:40:21;102280.22;;;0.74;28.29
70302;BME280;57706;56.326;43.882;2023-04-15T03:42:48;102286.69;;;0.88;28.60
70302;BME280;57706;56.326;43.882;2023-04-15T03:45:15;102285.63;;;0.93;27.61
70302;BME280;57706;56.326;43.882;2023-04-15T03:47:42;102296.81;;;0.94;27.79
70302;BME280;57706;56.326;43.882;2023-04-15T03:50:09;102298.19;;;1.04;27.36
70302;BME280;57706;56.326;43.882;2023-04-15T03:52:36;102292.78;;;1.10;27.46
70302;BME280;57706;56.326;43.882;2023-04-15T03:55:04;102299.56;;;1.15;27.54
70302;BME280;57706;56.326;43.882;2023-04-15T03:57:31;102300.91;;;1.25;27.43
70302;BME280;57706;56.326;43.882;2023-04-15T03:59:58;102293.72;;;1.33;26.61
70302;BME280;57706;56.326;43.882;2023-04-15T04:02:25;102304.19;;;1.30;26.55
70302;BME280;57706;56.326;43.882;2023-04-15T04:04:53;102315.31;;;1.34;26.27
70302;BME280;57706;56.326;43.882;2023-04-15T04:07:22;102314.66;;;1.27;26.18
70302;BME280;57706;56.326;43.882;2023-04-15T04:09:49;102321.09;;;1.41;26.12
70302;BME280;57706;56.326;43.882;2023-04-15T04:12:16;102318.22;;;1.48;26.39
70302;BME280;57706;56.326;43.882;2023-04-15T04:14:43;102316.72;;;1.67;26.22
70302;BME280;57706;56.326;43.882;2023-04-15T04:17:10;102307.41;;;1.61;25.96
70302;BME280;57706;56.326;43.882;2023-04-15T04:19:37;102316.19;;;1.57;25.83
70302;BME280;57706;56.326;43.882;2023-04-15T04:22:04;102312.81;;;1.55;25.73
70302;BME280;57706;56.326;43.882;2023-04-15T04:24:32;102313.94;;;1.71;25.91
70302;BME280;57706;56.326;43.882;2023-04-15T04:26:59;102318.00;;;1.78;26.10
70302;BME280;57706;56.326;43.882;2023-04-15T04:29:26;102319.41;;;1.87;25.45
70302;BME280;57706;56.326;43.882;2023-04-15T04:31:53;102320.25;;;1.88;25.39
70302;BME280;57706;56.326;43.882;2023-04-15T04:34:20;102326.94;;;1.93;25.19
70302;BME280;57706;56.326;43.882;2023-04-15T04:36:47;102326.38;;;1.85;25.42
70302;BME280;57706;56.326;43.882;2023-04-15T04:39:14;102334.38;;;2.03;24.84
70302;BME280;57706;56.326;43.882;2023-04-15T04:41:41;102328.75;;;1.91;24.85
70302;BME280;57706;56.326;43.882;2023-04-15T04:44:08;102333.00;;;2.16;24.83
70302;BME280;57706;56.326;43.882;2023-04-15T04:46:35;102343.47;;;2.37;24.88
70302;BME280;57706;56.326;43.882;2023-04-15T04:49:02;102332.94;;;2.40;24.72
70302;BME280;57706;56.326;43.882;2023-04-15T04:51:30;102341.03;;;2.55;24.32
70302;BME280;57706;56.326;43.882;2023-04-15T04:53:57;102334.50;;;2.22;24.31
70302;BME280;57706;56.326;43.882;2023-04-15T04:56:24;102344.47;;;2.55;24.78
70302;BME280;57706;56.326;43.882;2023-04-15T04:58:51;102344.94;;;2.86;23.90
70302;BME280;57706;56.326;43.882;2023-04-15T05:01:18;102334.91;;;2.99;23.75
70302;BME280;57706;56.326;43.882;2023-04-15T05:03:46;102340.53;;;3.09;23.33
70302;BME280;57706;56.326;43.882;2023-04-15T05:06:13;102340.53;;;3.09;23.47
70302;BME280;57706;56.326;43.882;2023-04-15T05:08:40;102342.53;;;3.03;23.69
70302;BME280;57706;56.326;43.882;2023-04-15T05:11:07;102342.38;;;3.07;23.52
70302;BME280;57706;56.326;43.882;2023-04-15T05:13:34;102349.84;;;3.14;23.17
70302;BME280;57706;56.326;43.882;2023-04-15T05:16:04;102346.28;;;2.96;23.51
70302;BME280;57706;56.326;43.882;2023-04-15T05:18:32;102347.94;;;3.18;24.05
70302;BME280;57706;56.326;43.882;2023-04-15T05:20:59;102350.78;;;3.92;23.43
70302;BME280;57706;56.326;43.882;2023-04-15T05:23:27;102347.22;;;4.50;22.41
70302;BME280;57706;56.326;43.882;2023-04-15T05:25:55;102349.13;;;5.00;21.72
70302;BME280;57706;56.326;43.882;2023-04-15T05:28:22;102357.72;;;5.02;20.70
70302;BME280;57706;56.326;43.882;2023-04-15T05:30:49;102356.75;;;5.38;20.58
70302;BME280;57706;56.326;43.882;2023-04-15T05:33:16;102360.19;;;5.72;20.35
70302;BME280;57706;56.326;43.882;2023-04-15T05:35:43;102358.41;;;5.23;20.92
70302;BME280;57706;56.326;43.882;2023-04-15T05:38:10;102350.53;;;4.89;21.90
70302;BME280;57706;56.326;43.882;2023-04-15T05:40:37;102354.50;;;4.79;22.07
70302;BME280;57706;56.326;43.882;2023-04-15T05:43:04;102356.31;;;4.59;22.09
70302;BME280;57706;56.326;43.882;2023-04-15T05:45:31;102358.09;;;4.59;22.35
70302;BME280;57706;56.326;43.882;2023-04-15T05:47:58;102356.47;;;4.56;21.93
70302;BME280;57706;56.326;43.882;2023-04-15T05:50:26;102350.03;;;4.46;21.68
70302;BME280;57706;56.326;43.882;2023-04-15T05:52:53;102358.19;;;4.75;22.05
70302;BME280;57706;56.326;43.882;2023-04-15T05:55:21;102361.72;;;4.91;21.30
70302;BME280;57706;56.326;43.882;2023-04-15T05:57:48;102359.09;;;4.91;20.53
70302;BME280;57706;56.326;43.882;2023-04-15T06:00:15;102360.78;;;5.10;21.30
70302;BME280;57706;56.326;43.882;2023-04-15T06:02:42;102361.53;;;5.30;20.94
70302;BME280;57706;56.326;43.882;2023-04-15T06:05:09;102367.34;;;5.35;20.93
70302;BME280;57706;56.326;43.882;2023-04-15T06:07:37;102367.16;;;5.56;21.09
70302;BME280;57706;56.326;43.882;2023-04-15T06:10:05;102374.44;;;5.83;20.08
70302;BME280;57706;56.326;43.882;2023-04-15T06:12:32;102361.25;;;6.18;19.80
70302;BME280;57706;56.326;43.882;2023-04-15T06:15:00;102360.66;;;6.45;19.07
70302;BME280;57706;56.326;43.882;2023-04-15T06:17:27;102364.44;;;7.00;18.86
70302;BME280;57706;56.326;43.882;2023-04-15T06:19:54;102370.94;;;7.38;18.70
70302;BME280;57706;56.326;43.882;2023-04-15T06:22:22;102366.38;;;8.13;18.21
70302;BME280;57706;56.326;43.882;2023-04-15T06:24:49;102363.44;;;8.60;17.36
70302;BME280;57706;56.326;43.882;2023-04-15T06:27:17;102367.53;;;8.49;16.47
70302;BME280;57706;56.326;43.882;2023-04-15T06:29:44;102370.84;;;11.73;15.86
70302;BME280;57706;56.326;43.882;2023-04-15T06:32:11;102360.44;;;18.25;10.80
70302;BME280;57706;56.326;43.882;2023-04-15T06:34:38;102362.88;;;21.93;9.01
70302;BME280;57706;56.326;43.882;2023-04-15T06:37:05;102356.22;;;25.73;7.03
70302;BME280;57706;56.326;43.882;2023-04-15T06:39:32;102356.09;;;28.47;5.76
70302;BME280;57706;56.326;43.882;2023-04-15T06:42:00;102355.53;;;30.98;4.80
70302;BME280;57706;56.326;43.882;2023-04-15T06:44:28;102341.00;;;31.37;4.84
70302;BME280;57706;56.326;43.882;2023-04-15T06:46:55;102339.63;;;32.96;4.13
70302;BME280;57706;56.326;43.882;2023-04-15T06:49:22;102336.16;;;32.52;4.26
70302;BME280;57706;56.326;43.882;2023-04-15T06:51:49;102326.91;;;33.59;4.03
70302;BME280;57706;56.326;43.882;2023-04-15T06:54:17;102327.81;;;34.46;3.39
70302;BME280;57706;56.326;43.882;2023-04-15T06:56:44;102321.00;;;35.74;3.29
70302;BME280;57706;56.326;43.882;2023-04-15T06:59:11;102323.91;;;36.56;2.89
70302;BME280;57706;56.326;43.882;2023-04-15T07:01:40;102330.06;;;36.91;2.67
70302;BME280;57706;56.326;43.882;2023-04-15T07:04:07;102332.84;;;37.24;2.80
70302;BME280;57706;56.326;43.882;2023-04-15T07:06:34;102330.78;;;36.77;2.42
70302;BME280;57706;56.326;43.882;2023-04-15T07:09:01;102335.94;;;37.37;2.22
70302;BME280;57706;56.326;43.882;2023-04-15T07:11:29;102330.09;;;38.19;2.03
70302;BME280;57706;56.326;43.882;2023-04-15T07:13:57;102321.03;;;38.04;1.95
70302;BME280;57706;56.326;43.882;2023-04-15T07:16:24;102322.00;;;36.13;2.75
70302;BME280;57706;56.326;43.882;2023-04-15T07:18:51;102324.97;;;37.98;2.10
70302;BME280;57706;56.326;43.882;2023-04-15T07:21:18;102318.44;;;39.23;1.99
70302;BME280;57706;56.326;43.882;2023-04-15T07:23:45;102324.97;;;38.54;1.90
70302;BME280;57706;56.326;43.882;2023-04-15T07:26:12;102320.44;;;39.32;1.58
70302;BME280;57706;56.326;43.882;2023-04-15T07:28:39;102313.31;;;36.73;2.06
70302;BME280;57706;56.326;43.882;2023-04-15T07:31:07;102315.72;;;38.64;2.01
70302;BME280;57706;56.326;43.882;2023-04-15T07:33:34;102324.38;;;38.94;1.48
70302;BME280;57706;56.326;43.882;2023-04-15T07:36:02;102317.56;;;38.40;1.55
70302;BME280;57706;56.326;43.882;2023-04-15T07:38:31;102320.44;;;39.09;1.41
70302;BME280;57706;56.326;43.882;2023-04-15T07:40:58;102317.81;;;39.49;1.64
70302;BME280;57706;56.326;43.882;2023-04-15T07:43:25;102302.06;;;41.28;1.21
70302;BME280;57706;56.326;43.882;2023-04-15T07:45:52;102314.25;;;41.09;1.24
70302;BME280;57706;56.326;43.882;2023-04-15T07:48:19;102302.41;;;41.09;0.99
70302;BME280;57706;56.326;43.882;2023-04-15T07:50:47;102304.13;;;40.08;1.68
70302;BME280;57706;56.326;43.882;2023-04-15T07:53:14;102306.34;;;40.99;1.01
70302;BME280;57706;56.326;43.882;2023-04-15T07:55:41;102297.69;;;41.27;1.03
70302;BME280;57706;56.326;43.882;2023-04-15T07:58:08;102300.63;;;41.69;1.01
70302;BME280;57706;56.326;43.882;2023-04-15T08:00:35;102289.59;;;42.85;0.62
70302;BME280;57706;56.326;43.882;2023-04-15T08:03:04;102303.75;;;41.59;1.23
70302;BME280;57706;56.326;43.882;2023-04-15T08:05:31;102303.50;;;40.11;1.24
70302;BME280;57706;56.326;43.882;2023-04-15T08:07:58;102295.97;;;42.21;0.74
70302;BME280;57706;56.326;43.882;2023-04-15T08:10:25;102284.31;;;42.16;0.99
70302;BME280;57706;56.326;43.882;2023-04-15T08:12:53;102290.34;;;42.18;0.88
70302;BME280;57706;56.326;43.882;2023-04-15T08:15:20;102290.81;;;39.92;1.36
70302;BME280;57706;56.326;43.882;2023-04-15T08:17:48;102281.38;;;40.42;1.24
70302;BME280;57706;56.326;43.882;2023-04-15T08:20:15;102293.56;;;40.01;1.20
70302;BME280;57706;56.326;43.882;2023-04-15T08:22:42;102285.53;;;40.22;1.24
70302;BME280;57706;56.326;43.882;2023-04-15T08:25:09;102279.59;;;40.73;1.21
70302;BME280;57706;56.326;43.882;2023-04-15T08:27:36;102273.38;;;41.11;1.20
70302;BME280;57706;56.326;43.882;2023-04-15T08:30:03;102275.38;;;42.40;0.82
70302;BME280;57706;56.326;43.882;2023-04-15T08:32:29;102277.63;;;42.81;0.76
70302;BME280;57706;56.326;43.882;2023-04-15T08:34:57;102272.41;;;43.00;0.55
70302;BME280;57706;56.326;43.882;2023-04-15T08:37:24;102272.38;;;38.47;1.55
70302;BME280;57706;56.326;43.882;2023-04-15T08:39:50;102283.34;;;40.86;0.90
70302;BME280;57706;56.326;43.882;2023-04-15T08:42:23;102277.25;;;41.76;0.64
70302;BME280;57706;56.326;43.882;2023-04-15T08:44:54;102279.31;;;41.79;0.72
70302;BME280;57706;56.326;43.882;2023-04-15T08:47:25;102271.16;;;42.76;0.55
70302;BME280;57706;56.326;43.882;2023-04-15T08:49:54;102273.13;;;42.76;0.60
70302;BME280;57706;56.326;43.882;2023-04-15T08:52:21;102269.38;;;42.93;0.54
70302;BME280;57706;56.326;43.882;2023-04-15T08:54:50;102270.84;;;43.86;0.36
70302;BME280;57706;56.326;43.882;2023-04-15T08:57:18;102270.59;;;42.83;0.71
70302;BME280;57706;56.326;43.882;2023-04-15T08:59:45;102278.72;;;43.72;0.39
70302;BME280;57706;56.326;43.882;2023-04-15T09:02:13;102268.44;;;43.47;0.34
70302;BME280;57706;56.326;43.882;2023-04-15T09:04:40;102261.38;;;43.25;0.42
70302;BME280;57706;56.326;43.882;2023-04-15T09:07:07;102257.28;;;43.56;0.56
70302;BME280;57706;56.326;43.882;2023-04-15T09:09:34;102252.97;;;42.75;0.84
70302;BME280;57706;56.326;43.882;2023-04-15T09:12:03;102245.56;;;42.67;0.59
70302;BME280;57706;56.326;43.882;2023-04-15T09:14:30;102248.84;;;42.27;0.83
70302;BME280;57706;56.326;43.882;2023-04-15T09:17:00;102255.28;;;40.93;1.02
70302;BME280;57706;56.326;43.882;2023-04-15T09:19:27;102254.63;;;42.89;0.82
70302;BME280;57706;56.326;43.882;2023-04-15T09:21:58;102261.47;;;43.04;0.47
70302;BME280;57706;56.326;43.882;2023-04-15T09:24:34;102254.28;;;40.88;0.90
70302;BME280;57706;56.326;43.882;2023-04-15T09:27:03;102253.66;;;42.30;0.94
70302;BME280;57706;56.326;43.882;2023-04-15T09:29:30;102253.72;;;41.31;0.83
70302;BME280;57706;56.326;43.882;2023-04-15T09:32:10;102248.47;;;40.64;1.03
70302;BME280;57706;56.326;43.882;2023-04-15T09:34:38;102244.50;;;42.38;0.84
70302;BME280;57706;56.326;43.882;2023-04-15T09:37:05;102248.53;;;41.29;1.18
70302;BME280;57706;56.326;43.882;2023-04-15T09:39:50;102244.00;;;41.33;1.11
70302;BME280;57706;56.326;43.882;2023-04-15T09:42:18;102241.16;;;42.11;0.75
70302;BME280;57706;56.326;43.882;2023-04-15T09:44:50;102240.34;;;40.94;1.12
70302;BME280;57706;56.326;43.882;2023-04-15T09:47:31;102240.84;;;42.04;0.98
70302;BME280;57706;56.326;43.882;2023-04-15T09:49:59;102244.19;;;41.10;1.27
70302;BME280;57706;56.326;43.882;2023-04-15T09:52:27;102238.91;;;39.59;1.35
70302;BME280;57706;56.326;43.882;2023-04-15T09:54:58;102241.22;;;41.72;1.30
70302;BME280;57706;56.326;43.882;2023-04-15T09:57:33;102246.88;;;42.48;0.72
70302;BME280;57706;56.326;43.882;2023-04-15T10:00:00;102243.06;;;41.59;1.13
70302;BME280;57706;56.326;43.882;2023-04-15T10:02:28;102233.81;;;42.58;0.83
70302;BME280;57706;56.326;43.882;2023-04-15T10:04:56;102236.94;;;41.83;0.96
70302;BME280;57706;56.326;43.882;2023-04-15T10:07:24;102235.69;;;40.59;1.22
70302;BME280;57706;56.326;43.882;2023-04-15T10:09:52;102245.41;;;36.32;2.42
70302;BME280;57706;56.326;43.882;2023-04-15T10:12:19;102245.25;;;39.68;1.76
70302;BME280;57706;56.326;43.882;2023-04-15T10:14:52;102247.56;;;39.84;1.69
70302;BME280;57706;56.326;43.882;2023-04-15T10:17:22;102250.81;;;41.36;1.30
70302;BME280;57706;56.326;43.882;2023-04-15T10:19:52;102248.53;;;41.98;1.33
70302;BME280;57706;56.326;43.882;2023-04-15T10:22:21;102235.44;;;42.71;1.03
70302;BME280;57706;56.326;43.882;2023-04-15T10:24:49;102243.56;;;43.47;0.91
70302;BME280;57706;56.326;43.882;2023-04-15T10:27:17;102243.00;;;40.81;1.38
70302;BME280;57706;56.326;43.882;2023-04-15T10:29:45;102235.84;;;41.76;1.28
70302;BME280;57706;56.326;43.882;2023-04-15T10:32:13;102242.91;;;39.44;1.67
70302;BME280;57706;56.326;43.882;2023-04-15T10:34:40;102238.03;;;41.22;1.35
70302;BME280;57706;56.326;43.882;2023-04-15T10:37:09;102242.16;;;39.61;1.41
70302;BME280;57706;56.326;43.882;2023-04-15T10:42:19;102229.97;;;40.02;1.52
70302;BME280;57706;56.326;43.882;2023-04-15T10:44:51;102225.75;;;41.02;1.14
70302;BME280;57706;56.326;43.882;2023-04-15T10:47:22;102213.50;;;40.38;1.31
70302;BME280;57706;56.326;43.882;2023-04-15T10:49:51;102219.19;;;39.65;1.81
70302;BME280;57706;56.326;43.882;2023-04-15T10:52:25;102221.38;;;40.92;1.43
70302;BME280;57706;56.326;43.882;2023-04-15T10:55:12;102215.28;;;42.37;1.18
70302;BME280;57706;56.326;43.882;2023-04-15T10:57:43;102215.00;;;39.68;1.25
70302;BME280;57706;56.326;43.882;2023-04-15T11:00:12;102205.41;;;40.15;1.31
70302;BME280;57706;56.326;43.882;2023-04-15T11:05:16;102204.53;;;40.94;1.20
70302;BME280;57706;56.326;43.882;2023-04-15T11:12:44;102200.69;;;40.59;1.56
70302;BME280;57706;56.326;43.882;2023-04-15T11:15:44;102203.69;;;39.78;1.42
70302;BME280;57706;56.326;43.882;2023-04-15T11:18:16;102197.28;;;40.63;1.27
70302;BME280;57706;56.326;43.882;2023-04-15T11:20:51;102198.72;;;39.40;1.63
70302;BME280;57706;56.326;43.882;2023-04-15T11:23:41;102203.28;;;41.30;0.85
70302;BME280;57706;56.326;43.882;2023-04-15T11:26:12;102187.56;;;40.03;1.43
70302;BME280;57706;56.326;43.882;2023-04-15T11:28:41;102177.63;;;39.27;1.71
70302;BME280;57706;56.326;43.882;2023-04-15T11:31:10;102189.56;;;38.90;1.94
70302;BME280;57706;56.326;43.882;2023-04-15T11:33:52;102184.63;;;39.33;1.35
70302;BME280;57706;56.326;43.882;2023-04-15T11:36:20;102181.47;;;39.57;1.50
70302;BME280;57706;56.326;43.882;2023-04-15T11:38:47;102172.81;;;40.26;1.60
70302;BME280;57706;56.326;43.882;2023-04-15T11:41:14;102174.44;;;41.19;1.31
70302;BME280;57706;56.326;43.882;2023-04-15T11:43:41;102168.78;;;40.58;1.49
70302;BME280;57706;56.326;43.882;2023-04-15T11:46:08;102164.84;;;40.77;1.35
70302;BME280;57706;56.326;43.882;2023-04-15T11:48:35;102176.44;;;39.50;1.59
70302;BME280;57706;56.326;43.882;2023-04-15T11:51:04;102161.13;;;40.91;1.37
70302;BME280;57706;56.326;43.882;2023-04-15T11:53:47;102164.25;;;40.27;1.10
70302;BME280;57706;56.326;43.882;2023-04-15T11:56:21;102171.69;;;38.79;1.65
70302;BME280;57706;56.326;43.882;2023-04-15T11:58:51;102166.72;;;39.44;1.61
70302;BME280;57706;56.326;43.882;2023-04-15T12:01:17;102166.00;;;38.66;1.82
70302;BME280;57706;56.326;43.882;2023-04-15T12:03:47;102166.66;;;39.85;1.40
70302;BME280;57706;56.326;43.882;2023-04-15T12:06:17;102163.72;;;38.09;1.94
70302;BME280;57706;56.326;43.882;2023-04-15T12:13:54;102159.97;;;38.64;1.87
70302;BME280;57706;56.326;43.882;2023-04-15T12:16:21;102160.59;;;38.84;1.48
70302;BME280;57706;56.326;43.882;2023-04-15T12:18:50;102149.25;;;39.49;1.46
70302;BME280;57706;56.326;43.882;2023-04-15T12:21:19;102148.81;;;39.64;1.65
70302;BME280;57706;56.326;43.882;2023-04-15T12:23:49;102148.94;;;39.50;1.46
70302;BME280;57706;56.326;43.882;2023-04-15T12:26:16;102141.00;;;39.49;1.80
70302;BME280;57706;56.326;43.882;2023-04-15T12:28:42;102146.78;;;39.38;1.46
70302;BME280;57706;56.326;43.882;2023-04-15T12:31:09;102143.69;;;39.89;1.51
70302;BME280;57706;56.326;43.882;2023-04-15T12:33:36;102157.34;;;39.45;1.61
70302;BME280;57706;56.326;43.882;2023-04-15T12:36:03;102143.28;;;39.47;1.64
70302;BME280;57706;56.326;43.882;2023-04-15T12:38:29;102139.09;;;39.09;1.56
70302;BME280;57706;56.326;43.882;2023-04-15T12:40:57;102140.19;;;37.94;1.65
70302;BME280;57706;56.326;43.882;2023-04-15T12:43:23;102131.22;;;38.02;1.66
70302;BME280;57706;56.326;43.882;2023-04-15T12:45:49;102133.13;;;37.79;2.22
70302;BME280;57706;56.326;43.882;2023-04-15T12:48:16;102135.81;;;38.30;1.66
70302;BME280;57706;56.326;43.882;2023-04-15T12:50:41;102139.69;;;38.74;1.65
70302;BME280;57706;56.326;43.882;2023-04-15T12:53:07;102138.94;;;38.00;1.77
70302;BME280;57706;56.326;43.882;2023-04-15T12:55:34;102136.63;;;38.07;1.68
70302;BME280;57706;56.326;43.882;2023-04-15T12:58:00;102133.34;;;38.05;1.80
70302;BME280;57706;56.326;43.882;2023-04-15T13:00:26;102131.53;;;37.02;1.75
70302;BME280;57706;56.326;43.882;2023-04-15T13:02:52;102137.53;;;37.88;1.80
70302;BME280;57706;56.326;43.882;2023-04-15T13:05:18;102141.84;;;37.25;1.88
70302;BME280;57706;56.326;43.882;2023-04-15T13:07:44;102150.63;;;36.22;1.93